Home   Weather   Kosovo   Peja   Past weeks
Flag for Kosovo

Past Weather in Peja, Kosovo — Yesterday and Last 2 Weeks

Currently: 28 °F. Clear. (Weather station: Prishtina, Kosovo). See more current weather

Past Weather in Peja — Graph

°F

Peja Temperature Yesterday

Maximum temperature yesterday: 50 °F (at 1:30 pm)
Minimum temperature yesterday: 27 °F (at 6:30 am)
Average temperature yesterday: 40 °F

High & Low Weather Summary for the Past Weeks

 TemperatureHumidityPressure
High64 °F (Feb 6, 2:30 pm)100% (Feb 7, 7:00 am)30.45 "Hg (Feb 7, 7:00 am)
Low25 °F (Feb 15, 5:00 am)26% (Feb 6, 3:00 pm)29.56 "Hg (Feb 11, 11:30 am)
Average44 °F71%30.02 "Hg
* Reported Feb 6 4:30 am — Feb 21 4:30 am, Peja. Weather by CustomWeather, © 2024

Note: Actual official high and low records may vary slightly from our data, if they occured in-between our weather recording intervals... More about our weather records

Peja Weather History for the Previous 24 Hours

Scroll right to see more
 ConditionsComfort  
Time TempWeatherWind HumidityBarometerVisibility
4:30 am
Wed, Feb 21
30 °FClear.1 mph93%30.24 "Hg6 mi
4:00 am30 °FClear.1 mph93%30.24 "Hg10 mi
3:30 am30 °FClear.3 mph100%30.24 "Hg10 mi
3:00 am32 °FPassing clouds.3 mph100%30.24 "HgN/A
2:30 am34 °FClear.2 mph87%30.24 "Hg10 mi
12:30 am37 °FPassing clouds.2 mph87%30.27 "HgN/A
12:00 am39 °FPassing clouds.3 mph81%30.27 "HgN/A
11:30 pm
Tue, Feb 20
41 °FPassing clouds.5 mph81%30.27 "HgN/A
11:00 pm41 °FPassing clouds.5 mph81%30.27 "HgN/A
10:30 pm41 °FPassing clouds.3 mph81%30.27 "HgN/A
10:00 pm41 °FPassing clouds.5 mph81%30.27 "HgN/A
9:30 pm41 °FPassing clouds.5 mph81%30.27 "HgN/A
9:00 pm41 °FPassing clouds.5 mph81%30.27 "HgN/A
8:30 pm41 °FPassing clouds.7 mph81%30.27 "HgN/A
8:00 pm41 °FPassing clouds.6 mph81%30.24 "HgN/A
7:30 pm41 °FPassing clouds.5 mph81%30.24 "HgN/A
7:00 pm41 °FPassing clouds.6 mph81%30.24 "HgN/A
6:30 pm41 °FPartly cloudy.6 mph81%30.24 "HgN/A
6:00 pm43 °FPartly cloudy.10 mph76%30.24 "HgN/A
5:30 pm43 °FPartly cloudy.14 mph76%30.21 "HgN/A
5:00 pm45 °FPartly sunny.16 mph76%30.21 "HgN/A
4:30 pm45 °FPartly sunny.16 mph76%30.21 "HgN/A
4:00 pm48 °FPartly sunny.13 mph62%30.21 "HgN/A
3:30 pm48 °FPartly sunny.13 mph58%30.18 "HgN/A
3:00 pm48 °FPartly sunny.13 mph58%30.18 "HgN/A
2:30 pm50 °FPartly sunny.15 mph54%30.18 "HgN/A
2:00 pm50 °FBroken clouds.7 mph50%30.18 "HgN/A
1:30 pm50 °FScattered clouds.3 mph50%30.21 "HgN/A
1:00 pm48 °FScattered clouds.3 mph54%30.21 "HgN/A
12:30 pm48 °FPartly sunny.8 mph54%30.21 "HgN/A
12:00 pm48 °FPartly sunny.8 mph58%30.24 "HgN/A
11:30 am46 °FBroken clouds.12 mph62%30.24 "HgN/A
11:00 am46 °FPassing clouds.9 mph62%30.24 "HgN/A
10:30 am45 °FPassing clouds.3 mph66%30.24 "HgN/A
10:00 am43 °FPassing clouds.2 mph66%30.24 "HgN/A
9:30 am39 °FSunny.2 mph75%30.24 "Hg10 mi
9:00 am37 °FSunny.1 mph81%30.24 "Hg10 mi
8:30 am36 °FSunny.1 mph81%30.24 "Hg10 mi
8:00 am32 °FClear.1 mph87%30.24 "Hg4 mi
7:30 am28 °FPassing clouds.2 mph93%30.24 "Hg4 mi
7:00 am27 °FScattered clouds.1 mph93%30.24 "Hg4 mi
6:30 am27 °FPassing clouds.2 mph100%30.21 "Hg5 mi
6:00 am28 °FClear.1 mph86%30.21 "Hg10 mi
5:30 am28 °FClear.3 mph93%30.21 "Hg10 mi
5:00 am30 °FClear.5 mph93%30.21 "Hg10 mi
Weather by CustomWeather, © 2024

See weather overview